sensor_id;sensor_type;location;lat;lon;timestamp;pressure;altitude;pressure_sealevel;temperature;humidity
37848;BME280;23688;33.130;-117.188;2022-12-18T00:01:18;99405.41;;;15.99;43.10
37848;BME280;23688;33.130;-117.188;2022-12-18T00:03:46;99395.75;;;15.95;43.70
37848;BME280;23688;33.130;-117.188;2022-12-18T00:06:12;99405.44;;;16.00;44.09
37848;BME280;23688;33.130;-117.188;2022-12-18T00:08:40;99405.81;;;15.73;44.60
37848;BME280;23688;33.130;-117.188;2022-12-18T00:11:10;99408.28;;;15.25;46.72
37848;BME280;23688;33.130;-117.188;2022-12-18T00:13:36;99401.78;;;15.06;48.04
37848;BME280;23688;33.130;-117.188;2022-12-18T00:16:12;99411.84;;;14.89;49.38
37848;BME280;23688;33.130;-117.188;2022-12-18T00:18:39;99392.41;;;14.76;50.18
37848;BME280;23688;33.130;-117.188;2022-12-18T00:21:08;99398.22;;;14.64;50.85
37848;BME280;23688;33.130;-117.188;2022-12-18T00:23:37;99393.44;;;14.48;50.67
37848;BME280;23688;33.130;-117.188;2022-12-18T00:26:06;99403.88;;;14.46;50.83
37848;BME280;23688;33.130;-117.188;2022-12-18T00:28:33;99391.75;;;14.50;50.59
37848;BME280;23688;33.130;-117.188;2022-12-18T00:31:04;99397.41;;;14.67;49.99
37848;BME280;23688;33.130;-117.188;2022-12-18T00:33:31;99398.38;;;14.70;49.52
37848;BME280;23688;33.130;-117.188;2022-12-18T00:36:15;99386.03;;;14.65;49.09
37848;BME280;23688;33.130;-117.188;2022-12-18T00:38:44;99389.47;;;14.62;48.94
37848;BME280;23688;33.130;-117.188;2022-12-18T00:41:12;99407.88;;;14.67;48.60
37848;BME280;23688;33.130;-117.188;2022-12-18T00:43:39;99396.44;;;14.62;48.73
37848;BME280;23688;33.130;-117.188;2022-12-18T00:46:06;99395.56;;;14.61;49.02
37848;BME280;23688;33.130;-117.188;2022-12-18T00:48:32;99402.34;;;14.54;48.97
37848;BME280;23688;33.130;-117.188;2022-12-18T00:50:58;99405.63;;;14.47;48.04
37848;BME280;23688;33.130;-117.188;2022-12-18T00:53:25;99406.50;;;14.46;48.05
37848;BME280;23688;33.130;-117.188;2022-12-18T00:55:51;99403.84;;;14.45;48.31
37848;BME280;23688;33.130;-117.188;2022-12-18T00:58:18;99402.88;;;14.41;47.82
37848;BME280;23688;33.130;-117.188;2022-12-18T01:00:44;99415.72;;;14.33;47.68
37848;BME280;23688;33.130;-117.188;2022-12-18T01:03:13;99419.94;;;14.27;48.59
37848;BME280;23688;33.130;-117.188;2022-12-18T01:05:41;99412.69;;;14.17;48.26
37848;BME280;23688;33.130;-117.188;2022-12-18T01:08:08;99415.16;;;14.10;48.36
37848;BME280;23688;33.130;-117.188;2022-12-18T01:10:34;99415.84;;;14.03;48.04
37848;BME280;23688;33.130;-117.188;2022-12-18T01:13:01;99424.47;;;14.01;47.66
37848;BME280;23688;33.130;-117.188;2022-12-18T01:15:27;99420.00;;;13.95;47.82
37848;BME280;23688;33.130;-117.188;2022-12-18T01:17:54;99416.31;;;13.88;47.74
37848;BME280;23688;33.130;-117.188;2022-12-18T01:20:20;99415.13;;;13.76;47.70
37848;BME280;23688;33.130;-117.188;2022-12-18T01:22:46;99433.34;;;13.74;47.70
37848;BME280;23688;33.130;-117.188;2022-12-18T01:25:13;99422.47;;;13.59;47.92
37848;BME280;23688;33.130;-117.188;2022-12-18T01:27:39;99425.88;;;13.56;48.45
37848;BME280;23688;33.130;-117.188;2022-12-18T01:30:06;99417.94;;;13.53;48.28
37848;BME280;23688;33.130;-117.188;2022-12-18T01:32:33;99419.75;;;13.54;48.32
37848;BME280;23688;33.130;-117.188;2022-12-18T01:34:59;99425.75;;;13.52;49.04
37848;BME280;23688;33.130;-117.188;2022-12-18T01:37:25;99427.50;;;13.51;50.36
37848;BME280;23688;33.130;-117.188;2022-12-18T01:39:52;99417.66;;;13.42;49.88
37848;BME280;23688;33.130;-117.188;2022-12-18T01:42:20;99428.00;;;13.39;49.60
37848;BME280;23688;33.130;-117.188;2022-12-18T01:45:21;99433.75;;;13.27;48.99
37848;BME280;23688;33.130;-117.188;2022-12-18T01:47:57;99442.34;;;13.25;49.48
37848;BME280;23688;33.130;-117.188;2022-12-18T01:53:17;99447.50;;;13.23;50.98
37848;BME280;23688;33.130;-117.188;2022-12-18T01:55:48;99436.63;;;13.08;51.53
37848;BME280;23688;33.130;-117.188;2022-12-18T01:58:15;99441.97;;;13.13;52.34
37848;BME280;23688;33.130;-117.188;2022-12-18T02:00:42;99458.63;;;13.18;52.80
37848;BME280;23688;33.130;-117.188;2022-12-18T02:03:08;99455.16;;;13.17;53.17
37848;BME280;23688;33.130;-117.188;2022-12-18T02:05:37;99451.81;;;13.23;53.28
37848;BME280;23688;33.130;-117.188;2022-12-18T02:08:16;99457.22;;;13.27;53.84
37848;BME280;23688;33.130;-117.188;2022-12-18T02:15:58;99459.41;;;13.15;55.52
37848;BME280;23688;33.130;-117.188;2022-12-18T02:18:37;99461.16;;;13.15;55.63
37848;BME280;23688;33.130;-117.188;2022-12-18T02:21:26;99453.47;;;13.19;56.04
37848;BME280;23688;33.130;-117.188;2022-12-18T02:24:18;99450.72;;;13.15;56.75
37848;BME280;23688;33.130;-117.188;2022-12-18T02:26:55;99447.09;;;13.10;57.03
37848;BME280;23688;33.130;-117.188;2022-12-18T02:29:31;99447.97;;;13.10;57.93
37848;BME280;23688;33.130;-117.188;2022-12-18T02:31:59;99453.09;;;13.07;57.43
37848;BME280;23688;33.130;-117.188;2022-12-18T02:34:29;99449.91;;;12.89;55.99
37848;BME280;23688;33.130;-117.188;2022-12-18T02:36:58;99456.41;;;12.74;55.66
37848;BME280;23688;33.130;-117.188;2022-12-18T02:39:27;99453.72;;;12.71;54.32
37848;BME280;23688;33.130;-117.188;2022-12-18T02:41:55;99441.50;;;12.70;53.10
37848;BME280;23688;33.130;-117.188;2022-12-18T02:44:22;99437.22;;;12.72;53.81
37848;BME280;23688;33.130;-117.188;2022-12-18T02:46:50;99436.41;;;12.73;53.60
37848;BME280;23688;33.130;-117.188;2022-12-18T02:49:31;99439.97;;;12.75;53.49
37848;BME280;23688;33.130;-117.188;2022-12-18T02:52:22;99445.91;;;12.71;54.80
37848;BME280;23688;33.130;-117.188;2022-12-18T02:55:06;99433.50;;;12.64;54.57
37848;BME280;23688;33.130;-117.188;2022-12-18T03:01:28;99421.31;;;12.63;54.86
37848;BME280;23688;33.130;-117.188;2022-12-18T03:03:29;99430.19;;;12.68;54.91
37848;BME280;23688;33.130;-117.188;2022-12-18T03:06:04;99423.97;;;12.64;55.41
37848;BME280;23688;33.130;-117.188;2022-12-18T03:08:38;99436.13;;;12.64;56.06
37848;BME280;23688;33.130;-117.188;2022-12-18T03:11:08;99425.41;;;12.55;55.13
37848;BME280;23688;33.130;-117.188;2022-12-18T03:13:50;99428.72;;;12.51;54.95
37848;BME280;23688;33.130;-117.188;2022-12-18T03:16:27;99417.25;;;12.44;55.10
37848;BME280;23688;33.130;-117.188;2022-12-18T03:18:58;99433.91;;;12.49;55.50
37848;BME280;23688;33.130;-117.188;2022-12-18T03:21:45;99416.25;;;12.40;55.72
37848;BME280;23688;33.130;-117.188;2022-12-18T03:24:12;99425.09;;;12.46;56.20
37848;BME280;23688;33.130;-117.188;2022-12-18T03:26:42;99426.00;;;12.46;56.97
37848;BME280;23688;33.130;-117.188;2022-12-18T03:29:25;99413.66;;;12.40;57.80
37848;BME280;23688;33.130;-117.188;2022-12-18T03:32:02;99423.28;;;12.43;58.49
37848;BME280;23688;33.130;-117.188;2022-12-18T03:34:35;99430.28;;;12.44;58.67
37848;BME280;23688;33.130;-117.188;2022-12-18T03:37:04;99426.66;;;12.40;58.90
37848;BME280;23688;33.130;-117.188;2022-12-18T03:39:31;99422.94;;;12.32;59.07
37848;BME280;23688;33.130;-117.188;2022-12-18T03:52:47;99426.09;;;12.24;59.25
37848;BME280;23688;33.130;-117.188;2022-12-18T03:55:17;99438.50;;;12.31;60.16
37848;BME280;23688;33.130;-117.188;2022-12-18T03:57:44;99432.00;;;12.18;59.47
37848;BME280;23688;33.130;-117.188;2022-12-18T04:00:17;99439.66;;;12.13;59.33
37848;BME280;23688;33.130;-117.188;2022-12-18T04:02:55;99436.94;;;12.10;59.45
37848;BME280;23688;33.130;-117.188;2022-12-18T04:05:24;99450.75;;;12.08;59.50
37848;BME280;23688;33.130;-117.188;2022-12-18T04:07:51;99435.91;;;12.05;59.27
37848;BME280;23688;33.130;-117.188;2022-12-18T04:10:19;99429.69;;;12.02;58.68
37848;BME280;23688;33.130;-117.188;2022-12-18T04:12:45;99431.34;;;11.99;58.24
37848;BME280;23688;33.130;-117.188;2022-12-18T04:15:12;99429.59;;;11.98;58.35
37848;BME280;23688;33.130;-117.188;2022-12-18T04:17:46;99445.47;;;12.06;58.47
37848;BME280;23688;33.130;-117.188;2022-12-18T04:20:15;99452.50;;;12.09;58.20
37848;BME280;23688;33.130;-117.188;2022-12-18T04:22:41;99444.78;;;12.12;58.24
37848;BME280;23688;33.130;-117.188;2022-12-18T04:25:08;99449.91;;;12.09;57.82
37848;BME280;23688;33.130;-117.188;2022-12-18T04:27:34;99435.84;;;12.04;57.85
37848;BME280;23688;33.130;-117.188;2022-12-18T04:30:01;99445.56;;;12.09;58.04
37848;BME280;23688;33.130;-117.188;2022-12-18T04:32:27;99434.19;;;12.06;57.51
37848;BME280;23688;33.130;-117.188;2022-12-18T04:34:53;99455.06;;;12.07;58.46
37848;BME280;23688;33.130;-117.188;2022-12-18T04:37:19;99439.78;;;11.92;58.46
37848;BME280;23688;33.130;-117.188;2022-12-18T04:39:46;99449.28;;;11.90;58.82
37848;BME280;23688;33.130;-117.188;2022-12-18T04:42:14;99448.91;;;11.81;59.15
37848;BME280;23688;33.130;-117.188;2022-12-18T04:44:40;99456.63;;;11.78;59.16
37848;BME280;23688;33.130;-117.188;2022-12-18T04:47:10;99455.56;;;11.73;59.65
37848;BME280;23688;33.130;-117.188;2022-12-18T04:49:37;99440.59;;;11.67;60.23
37848;BME280;23688;33.130;-117.188;2022-12-18T04:52:03;99455.56;;;11.73;60.61
37848;BME280;23688;33.130;-117.188;2022-12-18T04:54:29;99448.50;;;11.70;60.75
37848;BME280;23688;33.130;-117.188;2022-12-18T04:56:56;99451.25;;;11.73;60.92
37848;BME280;23688;33.130;-117.188;2022-12-18T04:59:22;99452.13;;;11.74;60.77
37848;BME280;23688;33.130;-117.188;2022-12-18T05:01:50;99446.03;;;11.73;61.17
37848;BME280;23688;33.130;-117.188;2022-12-18T05:04:16;99458.19;;;11.74;61.26
37848;BME280;23688;33.130;-117.188;2022-12-18T05:06:42;99454.72;;;11.74;61.24
37848;BME280;23688;33.130;-117.188;2022-12-18T05:09:08;99445.00;;;11.68;59.77
37848;BME280;23688;33.130;-117.188;2022-12-18T05:11:35;99453.88;;;11.75;60.01
37848;BME280;23688;33.130;-117.188;2022-12-18T05:14:01;99443.53;;;11.76;60.23
37848;BME280;23688;33.130;-117.188;2022-12-18T05:16:27;99446.91;;;11.74;58.78
37848;BME280;23688;33.130;-117.188;2022-12-18T05:18:54;99445.19;;;11.74;58.73
37848;BME280;23688;33.130;-117.188;2022-12-18T05:21:20;99450.47;;;11.76;59.50
37848;BME280;23688;33.130;-117.188;2022-12-18T05:23:46;99456.53;;;11.76;59.92
37848;BME280;23688;33.130;-117.188;2022-12-18T05:26:16;99457.25;;;11.72;59.57
37848;BME280;23688;33.130;-117.188;2022-12-18T05:28:42;99456.31;;;11.70;59.78
37848;BME280;23688;33.130;-117.188;2022-12-18T05:31:11;99451.00;;;11.67;59.85
37848;BME280;23688;33.130;-117.188;2022-12-18T05:33:37;99450.81;;;11.61;59.47
37848;BME280;23688;33.130;-117.188;2022-12-18T05:36:06;99452.50;;;11.61;59.69
37848;BME280;23688;33.130;-117.188;2022-12-18T05:38:34;99442.59;;;11.50;60.06
37848;BME280;23688;33.130;-117.188;2022-12-18T05:41:01;99455.72;;;11.53;60.63
37848;BME280;23688;33.130;-117.188;2022-12-18T05:43:29;99439.72;;;11.43;59.89
37848;BME280;23688;33.130;-117.188;2022-12-18T05:45:55;99454.53;;;11.45;59.74
37848;BME280;23688;33.130;-117.188;2022-12-18T05:48:23;99454.50;;;11.44;59.20
37848;BME280;23688;33.130;-117.188;2022-12-18T05:50:50;99443.78;;;11.36;58.53
37848;BME280;23688;33.130;-117.188;2022-12-18T05:53:19;99453.56;;;11.42;58.93
37848;BME280;23688;33.130;-117.188;2022-12-18T05:55:46;99446.34;;;11.34;59.48
37848;BME280;23688;33.130;-117.188;2022-12-18T05:58:13;99462.22;;;11.42;59.67
37848;BME280;23688;33.130;-117.188;2022-12-18T06:00:43;99463.81;;;11.39;59.19
37848;BME280;23688;33.130;-117.188;2022-12-18T06:03:11;99452.06;;;11.26;59.65
37848;BME280;23688;33.130;-117.188;2022-12-18T06:05:43;99453.72;;;11.24;58.85
37848;BME280;23688;33.130;-117.188;2022-12-18T06:08:11;99463.22;;;11.22;58.09
37848;BME280;23688;33.130;-117.188;2022-12-18T06:10:38;99452.38;;;11.11;57.10
37848;BME280;23688;33.130;-117.188;2022-12-18T06:13:05;99447.25;;;11.12;57.04
37848;BME280;23688;33.130;-117.188;2022-12-18T06:15:32;99455.09;;;11.14;58.22
37848;BME280;23688;33.130;-117.188;2022-12-18T06:18:00;99456.81;;;11.13;59.00
37848;BME280;23688;33.130;-117.188;2022-12-18T06:20:32;99455.28;;;11.19;58.99
37848;BME280;23688;33.130;-117.188;2022-12-18T06:23:01;99456.16;;;11.19;59.90
37848;BME280;23688;33.130;-117.188;2022-12-18T06:25:28;99449.38;;;11.23;59.18
37848;BME280;23688;33.130;-117.188;2022-12-18T06:27:56;99449.31;;;11.21;59.28
37848;BME280;23688;33.130;-117.188;2022-12-18T06:30:22;99449.25;;;11.20;59.13
37848;BME280;23688;33.130;-117.188;2022-12-18T06:32:50;99436.88;;;11.12;60.50
37848;BME280;23688;33.130;-117.188;2022-12-18T06:35:16;99445.66;;;11.16;60.14
37848;BME280;23688;33.130;-117.188;2022-12-18T06:37:43;99451.63;;;11.13;60.80
37848;BME280;23688;33.130;-117.188;2022-12-18T06:40:09;99436.44;;;11.02;61.24
37848;BME280;23688;33.130;-117.188;2022-12-18T06:42:35;99438.16;;;11.01;60.42
37848;BME280;23688;33.130;-117.188;2022-12-18T06:45:02;99451.63;;;10.91;59.60
37848;BME280;23688;33.130;-117.188;2022-12-18T06:47:28;99451.34;;;10.85;59.71
37848;BME280;23688;33.130;-117.188;2022-12-18T06:49:54;99453.84;;;10.82;60.39
37848;BME280;23688;33.130;-117.188;2022-12-18T06:52:21;99441.56;;;10.78;59.88
37848;BME280;23688;33.130;-117.188;2022-12-18T06:54:47;99437.19;;;10.77;60.11
37848;BME280;23688;33.130;-117.188;2022-12-18T06:57:13;99447.00;;;10.84;60.77
37848;BME280;23688;33.130;-117.188;2022-12-18T06:59:39;99446.63;;;10.75;60.74
37848;BME280;23688;33.130;-117.188;2022-12-18T07:02:06;99446.34;;;10.67;60.68
37848;BME280;23688;33.130;-117.188;2022-12-18T07:04:34;99460.34;;;10.70;60.51
37848;BME280;23688;33.130;-117.188;2022-12-18T07:07:00;99453.63;;;10.55;60.59
37848;BME280;23688;33.130;-117.188;2022-12-18T07:09:26;99448.94;;;10.46;58.28
37848;BME280;23688;33.130;-117.188;2022-12-18T07:11:53;99450.84;;;10.50;57.03
37848;BME280;23688;33.130;-117.188;2022-12-18T07:14:19;99442.81;;;10.44;56.95
37848;BME280;23688;33.130;-117.188;2022-12-18T07:16:45;99455.09;;;10.48;58.10
37848;BME280;23688;33.130;-117.188;2022-12-18T07:19:12;99451.50;;;10.44;56.90
37848;BME280;23688;33.130;-117.188;2022-12-18T07:21:38;99450.66;;;10.45;57.57
37848;BME280;23688;33.130;-117.188;2022-12-18T07:24:05;99454.88;;;10.43;57.45
37848;BME280;23688;33.130;-117.188;2022-12-18T07:26:32;99445.47;;;10.45;57.14
37848;BME280;23688;33.130;-117.188;2022-12-18T07:28:58;99441.16;;;10.46;57.89
37848;BME280;23688;33.130;-117.188;2022-12-18T07:31:25;99437.81;;;10.48;58.29
37848;BME280;23688;33.130;-117.188;2022-12-18T07:33:51;99444.78;;;10.49;57.44
37848;BME280;23688;33.130;-117.188;2022-12-18T07:36:18;99438.72;;;10.49;56.52
37848;BME280;23688;33.130;-117.188;2022-12-18T07:38:47;99426.53;;;10.48;54.02
37848;BME280;23688;33.130;-117.188;2022-12-18T07:41:14;99422.25;;;10.48;53.89
37848;BME280;23688;33.130;-117.188;2022-12-18T07:43:42;99419.22;;;10.60;55.80
37848;BME280;23688;33.130;-117.188;2022-12-18T07:46:10;99429.19;;;10.70;56.51
37848;BME280;23688;33.130;-117.188;2022-12-18T07:48:36;99427.50;;;10.73;56.45
37848;BME280;23688;33.130;-117.188;2022-12-18T07:51:05;99430.19;;;10.74;55.55
37848;BME280;23688;33.130;-117.188;2022-12-18T07:53:33;99412.59;;;10.67;55.40
37848;BME280;23688;33.130;-117.188;2022-12-18T07:56:02;99421.53;;;10.75;52.81
37848;BME280;23688;33.130;-117.188;2022-12-18T07:58:30;99418.06;;;10.75;51.02
37848;BME280;23688;33.130;-117.188;2022-12-18T08:01:08;99411.31;;;10.78;50.89
37848;BME280;23688;33.130;-117.188;2022-12-18T08:03:35;99405.28;;;10.79;50.92
37848;BME280;23688;33.130;-117.188;2022-12-18T08:06:02;99408.75;;;10.80;49.14
37848;BME280;23688;33.130;-117.188;2022-12-18T08:08:30;99398.25;;;10.77;49.61
37848;BME280;23688;33.130;-117.188;2022-12-18T08:10:56;99407.09;;;10.82;50.77
37848;BME280;23688;33.130;-117.188;2022-12-18T08:13:23;99399.91;;;10.75;51.47
37848;BME280;23688;33.130;-117.188;2022-12-18T08:16:04;99405.28;;;10.79;53.20
37848;BME280;23688;33.130;-117.188;2022-12-18T08:18:35;99402.56;;;10.76;53.51
37848;BME280;23688;33.130;-117.188;2022-12-18T08:21:13;99399.66;;;10.68;53.68
37848;BME280;23688;33.130;-117.188;2022-12-18T08:23:41;99392.56;;;10.64;54.72
37848;BME280;23688;33.130;-117.188;2022-12-18T08:26:08;99394.34;;;10.65;57.45
37848;BME280;23688;33.130;-117.188;2022-12-18T08:28:35;99398.47;;;10.60;57.94
37848;BME280;23688;33.130;-117.188;2022-12-18T08:31:01;99399.22;;;10.58;58.89
37848;BME280;23688;33.130;-117.188;2022-12-18T08:33:27;99388.53;;;10.50;58.70
37848;BME280;23688;33.130;-117.188;2022-12-18T08:35:54;99393.75;;;10.50;58.39
37848;BME280;23688;33.130;-117.188;2022-12-18T08:38:20;99400.66;;;10.49;58.32
37848;BME280;23688;33.130;-117.188;2022-12-18T08:40:46;99392.59;;;10.43;58.09
37848;BME280;23688;33.130;-117.188;2022-12-18T08:43:13;99391.72;;;10.43;58.21
37848;BME280;23688;33.130;-117.188;2022-12-18T08:45:57;99387.25;;;10.39;58.22
37848;BME280;23688;33.130;-117.188;2022-12-18T08:48:23;99391.59;;;10.40;58.14
37848;BME280;23688;33.130;-117.188;2022-12-18T08:50:57;99381.69;;;10.30;58.15
37848;BME280;23688;33.130;-117.188;2022-12-18T08:53:23;99391.31;;;10.32;58.17
37848;BME280;23688;33.130;-117.188;2022-12-18T08:55:50;99378.91;;;10.26;57.98
37848;BME280;23688;33.130;-117.188;2022-12-18T08:58:16;99368.19;;;10.17;57.91
37848;BME280;23688;33.130;-117.188;2022-12-18T09:00:43;99375.97;;;10.17;58.23
37848;BME280;23688;33.130;-117.188;2022-12-18T09:03:16;99377.72;;;10.18;58.73
37848;BME280;23688;33.130;-117.188;2022-12-18T09:05:43;99356.53;;;10.07;58.58
37848;BME280;23688;33.130;-117.188;2022-12-18T09:08:11;99358.22;;;10.07;58.10
37848;BME280;23688;33.130;-117.188;2022-12-18T09:10:45;99366.72;;;10.03;58.22
37848;BME280;23688;33.130;-117.188;2022-12-18T09:13:12;99370.31;;;10.06;58.87
37848;BME280;23688;33.130;-117.188;2022-12-18T09:15:46;99376.28;;;10.04;58.57
37848;BME280;23688;33.130;-117.188;2022-12-18T09:18:15;99366.66;;;10.01;57.40
37848;BME280;23688;33.130;-117.188;2022-12-18T09:20:41;99365.59;;;9.96;56.52
37848;BME280;23688;33.130;-117.188;2022-12-18T09:23:08;99365.66;;;9.98;55.57
37848;BME280;23688;33.130;-117.188;2022-12-18T09:25:36;99371.78;;;10.00;55.70
37848;BME280;23688;33.130;-117.188;2022-12-18T09:28:05;99364.81;;;9.99;55.45
37848;BME280;23688;33.130;-117.188;2022-12-18T09:30:31;99365.59;;;9.96;55.12
37848;BME280;23688;33.130;-117.188;2022-12-18T09:33:00;99373.38;;;9.96;54.68
37848;BME280;23688;33.130;-117.188;2022-12-18T09:35:26;99374.97;;;9.93;54.33
37848;BME280;23688;33.130;-117.188;2022-12-18T09:37:53;99374.00;;;9.91;54.55
37848;BME280;23688;33.130;-117.188;2022-12-18T09:40:23;99364.44;;;9.90;54.86
37848;BME280;23688;33.130;-117.188;2022-12-18T09:42:56;99367.94;;;9.90;53.54
37848;BME280;23688;33.130;-117.188;2022-12-18T09:45:23;99364.63;;;9.94;53.72
37848;BME280;23688;33.130;-117.188;2022-12-18T09:47:52;99375.94;;;9.96;52.71
37848;BME280;23688;33.130;-117.188;2022-12-18T09:50:32;99364.44;;;9.90;52.69
37848;BME280;23688;33.130;-117.188;2022-12-18T09:53:04;99369.69;;;9.91;52.17
37848;BME280;23688;33.130;-117.188;2022-12-18T09:55:36;99369.78;;;9.93;50.22
37848;BME280;23688;33.130;-117.188;2022-12-18T10:00:36;99363.00;;;9.96;47.65
37848;BME280;23688;33.130;-117.188;2022-12-18T10:03:14;99368.44;;;10.02;47.49
37848;BME280;23688;33.130;-117.188;2022-12-18T10:11:48;99371.34;;;10.10;51.12
37848;BME280;23688;33.130;-117.188;2022-12-18T10:14:45;99366.97;;;10.09;51.36
37848;BME280;23688;33.130;-117.188;2022-12-18T10:28:10;99365.38;;;9.92;49.98
37848;BME280;23688;33.130;-117.188;2022-12-18T10:30:42;99362.00;;;9.93;49.58
37848;BME280;23688;33.130;-117.188;2022-12-18T10:33:20;99361.59;;;9.83;49.76
37848;BME280;23688;33.130;-117.188;2022-12-18T10:35:50;99363.56;;;9.89;48.66
37848;BME280;23688;33.130;-117.188;2022-12-18T10:40:59;99353.50;;;9.76;49.83
37848;BME280;23688;33.130;-117.188;2022-12-18T10:43:26;99369.06;;;9.76;50.26
37848;BME280;23688;33.130;-117.188;2022-12-18T10:46:03;99373.53;;;9.39;54.17
37848;BME280;23688;33.130;-117.188;2022-12-18T10:48:32;99372.56;;;8.98;54.71
37848;BME280;23688;33.130;-117.188;2022-12-18T10:51:00;99380.22;;;9.15;54.19
37848;BME280;23688;33.130;-117.188;2022-12-18T10:53:28;99381.34;;;9.21;54.32
37848;BME280;23688;33.130;-117.188;2022-12-18T10:55:59;99385.41;;;9.34;53.91
37848;BME280;23688;33.130;-117.188;2022-12-18T10:58:37;99367.19;;;9.33;52.69
37848;BME280;23688;33.130;-117.188;2022-12-18T11:06:22;99368.88;;;9.52;51.82
37848;BME280;23688;33.130;-117.188;2022-12-18T11:09:01;99367.38;;;9.57;52.39
37848;BME280;23688;33.130;-117.188;2022-12-18T11:11:28;99372.56;;;9.57;53.29
37848;BME280;23688;33.130;-117.188;2022-12-18T11:13:59;99360.28;;;9.53;53.70
37848;BME280;23688;33.130;-117.188;2022-12-18T11:16:28;99371.81;;;9.59;54.63
37848;BME280;23688;33.130;-117.188;2022-12-18T11:21:53;99357.69;;;9.53;55.23
37848;BME280;23688;33.130;-117.188;2022-12-18T11:24:40;99365.66;;;9.57;56.03
37848;BME280;23688;33.130;-117.188;2022-12-18T11:27:16;99358.53;;;9.52;56.16
37848;BME280;23688;33.130;-117.188;2022-12-18T11:29:44;99354.66;;;9.42;56.06
37848;BME280;23688;33.130;-117.188;2022-12-18T11:32:44;99358.00;;;9.39;55.43
37848;BME280;23688;33.130;-117.188;2022-12-18T11:35:50;99356.75;;;9.31;55.62
37848;BME280;23688;33.130;-117.188;2022-12-18T11:38:24;99352.06;;;9.23;55.43
37848;BME280;23688;33.130;-117.188;2022-12-18T11:43:52;99356.63;;;9.09;56.02
37848;BME280;23688;33.130;-117.188;2022-12-18T11:46:47;99358.13;;;9.04;56.00
37848;BME280;23688;33.130;-117.188;2022-12-18T11:49:28;99353.69;;;9.01;55.22
37848;BME280;23688;33.130;-117.188;2022-12-18T11:52:09;99344.84;;;8.96;55.70
37848;BME280;23688;33.130;-117.188;2022-12-18T11:54:41;99350.00;;;8.96;54.17
37848;BME280;23688;33.130;-117.188;2022-12-18T12:08:05;99349.53;;;8.85;52.69
37848;BME280;23688;33.130;-117.188;2022-12-18T12:10:50;99365.00;;;8.84;52.25
37848;BME280;23688;33.130;-117.188;2022-12-18T12:13:38;99360.56;;;8.81;51.43
37848;BME280;23688;33.130;-117.188;2022-12-18T12:16:15;99357.09;;;8.81;50.32
37848;BME280;23688;33.130;-117.188;2022-12-18T12:21:34;99362.19;;;8.79;49.65
37848;BME280;23688;33.130;-117.188;2022-12-18T12:25:01;99356.72;;;8.73;51.57
37848;BME280;23688;33.130;-117.188;2022-12-18T12:27:53;99352.69;;;8.60;51.42
37848;BME280;23688;33.130;-117.188;2022-12-18T12:30:10;99348.94;;;8.53;49.55
37848;BME280;23688;33.130;-117.188;2022-12-18T12:41:08;99344.78;;;8.39;48.59
37848;BME280;23688;33.130;-117.188;2022-12-18T12:43:58;99351.00;;;8.43;47.99
37848;BME280;23688;33.130;-117.188;2022-12-18T12:46:27;99338.81;;;8.40;47.69
37848;BME280;23688;33.130;-117.188;2022-12-18T12:49:02;99340.66;;;8.43;46.80
37848;BME280;23688;33.130;-117.188;2022-12-18T12:51:41;99352.31;;;8.52;46.72
37848;BME280;23688;33.130;-117.188;2022-12-18T12:54:16;99354.25;;;8.56;47.18
37848;BME280;23688;33.130;-117.188;2022-12-18T12:59:37;99330.53;;;8.47;48.87
37848;BME280;23688;33.130;-117.188;2022-12-18T13:02:20;99344.69;;;8.55;48.81
37848;BME280;23688;33.130;-117.188;2022-12-18T13:07:47;99343.97;;;8.40;50.66
37848;BME280;23688;33.130;-117.188;2022-12-18T13:13:04;99336.00;;;8.18;51.58
37848;BME280;23688;33.130;-117.188;2022-12-18T13:15:41;99336.41;;;8.09;50.76
37848;BME280;23688;33.130;-117.188;2022-12-18T13:25:52;99352.06;;;8.12;50.14
37848;BME280;23688;33.130;-117.188;2022-12-18T13:31:06;99367.44;;;7.91;51.19
37848;BME280;23688;33.130;-117.188;2022-12-18T13:33:43;99379.53;;;7.92;50.99
37848;BME280;23688;33.130;-117.188;2022-12-18T13:36:26;99365.66;;;7.90;50.94
37848;BME280;23688;33.130;-117.188;2022-12-18T13:41:38;99374.38;;;7.92;50.35
37848;BME280;23688;33.130;-117.188;2022-12-18T13:44:33;99370.66;;;7.87;50.78
37848;BME280;23688;33.130;-117.188;2022-12-18T13:47:02;99381.69;;;7.83;51.61
37848;BME280;23688;33.130;-117.188;2022-12-18T13:49:38;99381.50;;;7.80;51.50
37848;BME280;23688;33.130;-117.188;2022-12-18T13:52:23;99374.09;;;7.69;52.17
37848;BME280;23688;33.130;-117.188;2022-12-18T13:55:00;99374.31;;;7.56;51.97
37848;BME280;23688;33.130;-117.188;2022-12-18T13:57:37;99379.00;;;7.47;52.75
37848;BME280;23688;33.130;-117.188;2022-12-18T14:02:49;99383.78;;;7.39;52.38
37848;BME280;23688;33.130;-117.188;2022-12-18T14:05:28;99372.88;;;7.28;52.77
37848;BME280;23688;33.130;-117.188;2022-12-18T14:08:00;99378.13;;;7.14;54.14
37848;BME280;23688;33.130;-117.188;2022-12-18T14:10:27;99388.03;;;7.06;53.64
37848;BME280;23688;33.130;-117.188;2022-12-18T14:12:54;99369.78;;;6.86;54.04
37848;BME280;23688;33.130;-117.188;2022-12-18T14:20:44;99382.59;;;6.85;53.83
37848;BME280;23688;33.130;-117.188;2022-12-18T14:25:55;99390.94;;;6.96;53.68
37848;BME280;23688;33.130;-117.188;2022-12-18T14:28:22;99398.75;;;6.97;53.75
37848;BME280;23688;33.130;-117.188;2022-12-18T14:30:49;99389.72;;;6.89;53.70
37848;BME280;23688;33.130;-117.188;2022-12-18T14:33:21;99395.59;;;6.86;55.16
37848;BME280;23688;33.130;-117.188;2022-12-18T14:35:59;99389.94;;;6.77;55.00
37848;BME280;23688;33.130;-117.188;2022-12-18T14:38:37;99402.66;;;6.74;54.09
37848;BME280;23688;33.130;-117.188;2022-12-18T14:41:06;99395.66;;;6.72;54.56